sensor_id;sensor_type;location;lat;lon;timestamp;P1;durP1;ratioP1;P2;durP2;ratioP2
3155;SDS011;1588;50.892;7.082;2023-06-19T00:02:39;6.77;;;5.83;;
3155;SDS011;1588;50.892;7.082;2023-06-19T00:07:42;10.43;;;5.27;;
3155;SDS011;1588;50.892;7.082;2023-06-19T00:12:44;13.60;;;6.27;;
3155;SDS011;1588;50.892;7.082;2023-06-19T00:17:48;8.13;;;6.03;;
3155;SDS011;1588;50.892;7.082;2023-06-19T00:22:50;9.47;;;5.70;;
3155;SDS011;1588;50.892;7.082;2023-06-19T00:27:55;8.03;;;6.27;;
3155;SDS011;1588;50.892;7.082;2023-06-19T00:32:58;8.93;;;6.40;;
3155;SDS011;1588;50.892;7.082;2023-06-19T00:38:02;9.63;;;6.00;;
3155;SDS011;1588;50.892;7.082;2023-06-19T00:43:06;9.00;;;6.23;;
3155;SDS011;1588;50.892;7.082;2023-06-19T00:48:10;10.70;;;7.30;;
3155;SDS011;1588;50.892;7.082;2023-06-19T00:53:13;9.70;;;6.73;;
3155;SDS011;1588;50.892;7.082;2023-06-19T00:58:16;9.27;;;7.07;;
3155;SDS011;1588;50.892;7.082;2023-06-19T01:03:20;11.20;;;8.00;;
3155;SDS011;1588;50.892;7.082;2023-06-19T01:08:36;13.97;;;8.30;;
3155;SDS011;1588;50.892;7.082;2023-06-19T01:13:47;9.57;;;6.70;;
3155;SDS011;1588;50.892;7.082;2023-06-19T01:18:55;9.93;;;7.17;;
3155;SDS011;1588;50.892;7.082;2023-06-19T01:23:59;10.63;;;6.80;;
3155;SDS011;1588;50.892;7.082;2023-06-19T01:29:02;10.30;;;7.40;;
3155;SDS011;1588;50.892;7.082;2023-06-19T01:34:06;9.83;;;7.23;;
3155;SDS011;1588;50.892;7.082;2023-06-19T01:39:14;11.23;;;8.00;;
3155;SDS011;1588;50.892;7.082;2023-06-19T01:44:17;10.60;;;7.90;;
3155;SDS011;1588;50.892;7.082;2023-06-19T01:49:20;10.03;;;7.50;;
3155;SDS011;1588;50.892;7.082;2023-06-19T01:54:24;10.10;;;7.83;;
3155;SDS011;1588;50.892;7.082;2023-06-19T01:59:26;11.40;;;8.37;;
3155;SDS011;1588;50.892;7.082;2023-06-19T02:04:29;11.70;;;8.23;;
3155;SDS011;1588;50.892;7.082;2023-06-19T02:09:33;13.13;;;7.90;;
3155;SDS011;1588;50.892;7.082;2023-06-19T02:14:35;10.50;;;8.13;;
3155;SDS011;1588;50.892;7.082;2023-06-19T02:19:40;11.97;;;8.40;;
3155;SDS011;1588;50.892;7.082;2023-06-19T02:24:47;11.07;;;7.63;;
3155;SDS011;1588;50.892;7.082;2023-06-19T02:29:49;14.03;;;7.90;;
3155;SDS011;1588;50.892;7.082;2023-06-19T02:34:52;13.20;;;9.30;;
3155;SDS011;1588;50.892;7.082;2023-06-19T02:39:58;12.13;;;7.33;;
3155;SDS011;1588;50.892;7.082;2023-06-19T02:45:00;11.17;;;8.50;;
3155;SDS011;1588;50.892;7.082;2023-06-19T02:50:05;11.97;;;7.90;;
3155;SDS011;1588;50.892;7.082;2023-06-19T02:55:12;10.27;;;8.50;;
3155;SDS011;1588;50.892;7.082;2023-06-19T03:00:14;11.63;;;8.37;;
3155;SDS011;1588;50.892;7.082;2023-06-19T03:05:17;10.40;;;7.57;;
3155;SDS011;1588;50.892;7.082;2023-06-19T03:10:21;12.33;;;8.60;;
3155;SDS011;1588;50.892;7.082;2023-06-19T03:15:24;13.93;;;8.80;;
3155;SDS011;1588;50.892;7.082;2023-06-19T03:20:28;12.70;;;8.50;;
3155;SDS011;1588;50.892;7.082;2023-06-19T03:25:31;15.13;;;8.80;;
3155;SDS011;1588;50.892;7.082;2023-06-19T03:30:35;11.47;;;8.30;;
3155;SDS011;1588;50.892;7.082;2023-06-19T03:35:37;13.30;;;8.93;;
3155;SDS011;1588;50.892;7.082;2023-06-19T03:40:42;13.80;;;9.37;;
3155;SDS011;1588;50.892;7.082;2023-06-19T03:45:45;14.00;;;9.03;;
3155;SDS011;1588;50.892;7.082;2023-06-19T03:50:47;11.27;;;8.93;;
3155;SDS011;1588;50.892;7.082;2023-06-19T03:55:51;13.53;;;9.70;;
3155;SDS011;1588;50.892;7.082;2023-06-19T04:00:53;16.97;;;9.00;;
3155;SDS011;1588;50.892;7.082;2023-06-19T04:05:55;12.60;;;8.70;;
3155;SDS011;1588;50.892;7.082;2023-06-19T04:10:59;11.30;;;7.80;;
3155;SDS011;1588;50.892;7.082;2023-06-19T04:16:01;11.20;;;7.93;;
3155;SDS011;1588;50.892;7.082;2023-06-19T04:21:04;11.63;;;6.33;;
3155;SDS011;1588;50.892;7.082;2023-06-19T04:26:08;10.10;;;7.13;;
3155;SDS011;1588;50.892;7.082;2023-06-19T04:31:10;8.33;;;5.23;;
3155;SDS011;1588;50.892;7.082;2023-06-19T04:36:12;7.70;;;5.17;;
3155;SDS011;1588;50.892;7.082;2023-06-19T04:41:16;6.73;;;4.93;;
3155;SDS011;1588;50.892;7.082;2023-06-19T04:46:18;7.70;;;5.00;;
3155;SDS011;1588;50.892;7.082;2023-06-19T04:51:21;6.87;;;5.07;;
3155;SDS011;1588;50.892;7.082;2023-06-19T04:56:24;7.80;;;4.83;;
3155;SDS011;1588;50.892;7.082;2023-06-19T05:01:27;13.73;;;5.40;;
3155;SDS011;1588;50.892;7.082;2023-06-19T05:06:30;5.93;;;4.40;;
3155;SDS011;1588;50.892;7.082;2023-06-19T05:11:34;11.90;;;5.43;;
3155;SDS011;1588;50.892;7.082;2023-06-19T05:16:36;8.67;;;5.07;;
3155;SDS011;1588;50.892;7.082;2023-06-19T05:21:39;7.50;;;4.90;;
3155;SDS011;1588;50.892;7.082;2023-06-19T05:26:43;9.43;;;4.97;;
3155;SDS011;1588;50.892;7.082;2023-06-19T05:31:45;9.60;;;4.73;;
3155;SDS011;1588;50.892;7.082;2023-06-19T05:36:50;11.90;;;4.73;;
3155;SDS011;1588;50.892;7.082;2023-06-19T05:41:54;7.60;;;4.77;;
3155;SDS011;1588;50.892;7.082;2023-06-19T05:46:57;17.33;;;5.60;;
3155;SDS011;1588;50.892;7.082;2023-06-19T05:51:59;6.57;;;4.23;;
3155;SDS011;1588;50.892;7.082;2023-06-19T05:57:03;9.80;;;4.07;;
3155;SDS011;1588;50.892;7.082;2023-06-19T06:02:06;8.30;;;4.70;;
3155;SDS011;1588;50.892;7.082;2023-06-19T06:07:08;6.83;;;3.87;;
3155;SDS011;1588;50.892;7.082;2023-06-19T06:12:12;4.67;;;3.73;;
3155;SDS011;1588;50.892;7.082;2023-06-19T06:17:14;6.20;;;3.20;;
3155;SDS011;1588;50.892;7.082;2023-06-19T06:22:16;8.83;;;3.60;;
3155;SDS011;1588;50.892;7.082;2023-06-19T06:27:21;12.20;;;4.30;;
3155;SDS011;1588;50.892;7.082;2023-06-19T06:32:23;4.97;;;3.47;;
3155;SDS011;1588;50.892;7.082;2023-06-19T06:37:26;7.97;;;4.37;;
3155;SDS011;1588;50.892;7.082;2023-06-19T06:42:30;10.60;;;4.50;;
3155;SDS011;1588;50.892;7.082;2023-06-19T06:47:32;6.90;;;3.90;;
3155;SDS011;1588;50.892;7.082;2023-06-19T06:52:36;5.00;;;3.93;;
3155;SDS011;1588;50.892;7.082;2023-06-19T06:57:40;6.00;;;4.40;;
3155;SDS011;1588;50.892;7.082;2023-06-19T07:02:42;13.13;;;4.20;;
3155;SDS011;1588;50.892;7.082;2023-06-19T07:07:44;5.63;;;3.80;;
3155;SDS011;1588;50.892;7.082;2023-06-19T07:12:48;4.33;;;3.60;;
3155;SDS011;1588;50.892;7.082;2023-06-19T07:17:51;5.70;;;3.83;;
3155;SDS011;1588;50.892;7.082;2023-06-19T07:22:54;4.20;;;3.10;;
3155;SDS011;1588;50.892;7.082;2023-06-19T07:27:58;5.80;;;3.87;;
3155;SDS011;1588;50.892;7.082;2023-06-19T07:33:00;5.00;;;3.10;;
3155;SDS011;1588;50.892;7.082;2023-06-19T07:38:03;3.27;;;2.73;;
3155;SDS011;1588;50.892;7.082;2023-06-19T07:43:06;2.60;;;2.40;;
3155;SDS011;1588;50.892;7.082;2023-06-19T07:48:09;3.30;;;3.00;;
3155;SDS011;1588;50.892;7.082;2023-06-19T07:53:11;9.03;;;3.30;;
3155;SDS011;1588;50.892;7.082;2023-06-19T07:58:15;2.80;;;2.53;;
3155;SDS011;1588;50.892;7.082;2023-06-19T08:03:17;2.33;;;2.00;;
3155;SDS011;1588;50.892;7.082;2023-06-19T08:08:20;2.20;;;1.30;;
3155;SDS011;1588;50.892;7.082;2023-06-19T08:13:23;2.40;;;1.63;;
3155;SDS011;1588;50.892;7.082;2023-06-19T08:18:26;2.60;;;1.47;;
3155;SDS011;1588;50.892;7.082;2023-06-19T08:23:28;3.63;;;1.70;;
3155;SDS011;1588;50.892;7.082;2023-06-19T08:28:32;5.33;;;2.23;;
3155;SDS011;1588;50.892;7.082;2023-06-19T08:33:34;1.73;;;1.60;;
3155;SDS011;1588;50.892;7.082;2023-06-19T08:38:37;1.83;;;1.67;;
3155;SDS011;1588;50.892;7.082;2023-06-19T08:43:41;7.87;;;1.60;;
3155;SDS011;1588;50.892;7.082;2023-06-19T08:48:43;2.60;;;2.03;;
3155;SDS011;1588;50.892;7.082;2023-06-19T08:53:49;2.23;;;2.13;;
3155;SDS011;1588;50.892;7.082;2023-06-19T08:59:06;2.70;;;1.97;;
3155;SDS011;1588;50.892;7.082;2023-06-19T09:04:14;2.47;;;2.27;;
3155;SDS011;1588;50.892;7.082;2023-06-19T09:09:16;21.73;;;2.70;;
3155;SDS011;1588;50.892;7.082;2023-06-19T09:14:27;4.23;;;2.40;;
3155;SDS011;1588;50.892;7.082;2023-06-19T09:19:34;8.93;;;2.17;;
3155;SDS011;1588;50.892;7.082;2023-06-19T09:24:37;2.40;;;2.20;;
3155;SDS011;1588;50.892;7.082;2023-06-19T09:29:42;7.30;;;2.50;;
3155;SDS011;1588;50.892;7.082;2023-06-19T09:34:54;2.70;;;2.50;;
3155;SDS011;1588;50.892;7.082;2023-06-19T09:40:00;2.20;;;2.10;;
3155;SDS011;1588;50.892;7.082;2023-06-19T09:45:12;6.73;;;2.23;;
3155;SDS011;1588;50.892;7.082;2023-06-19T09:50:19;3.70;;;2.10;;
3155;SDS011;1588;50.892;7.082;2023-06-19T09:55:27;2.60;;;2.40;;
3155;SDS011;1588;50.892;7.082;2023-06-19T10:00:32;10.20;;;2.60;;
3155;SDS011;1588;50.892;7.082;2023-06-19T10:05:36;2.97;;;2.67;;
3155;SDS011;1588;50.892;7.082;2023-06-19T10:10:45;6.60;;;2.53;;
3155;SDS011;1588;50.892;7.082;2023-06-19T10:15:50;14.97;;;3.10;;
3155;SDS011;1588;50.892;7.082;2023-06-19T10:20:53;4.50;;;2.87;;
3155;SDS011;1588;50.892;7.082;2023-06-19T10:25:56;9.80;;;2.87;;
3155;SDS011;1588;50.892;7.082;2023-06-19T10:31:01;4.00;;;2.87;;
3155;SDS011;1588;50.892;7.082;2023-06-19T10:36:13;3.00;;;2.70;;
3155;SDS011;1588;50.892;7.082;2023-06-19T10:41:16;3.33;;;3.03;;
3155;SDS011;1588;50.892;7.082;2023-06-19T10:46:20;4.33;;;3.13;;
3155;SDS011;1588;50.892;7.082;2023-06-19T10:51:26;3.70;;;3.40;;
3155;SDS011;1588;50.892;7.082;2023-06-19T10:56:29;5.87;;;3.63;;
3155;SDS011;1588;50.892;7.082;2023-06-19T11:01:34;8.87;;;3.50;;
3155;SDS011;1588;50.892;7.082;2023-06-19T11:06:37;4.20;;;3.07;;
3155;SDS011;1588;50.892;7.082;2023-06-19T11:11:41;5.40;;;3.77;;
3155;SDS011;1588;50.892;7.082;2023-06-19T11:16:46;5.20;;;3.50;;
3155;SDS011;1588;50.892;7.082;2023-06-19T11:21:50;5.23;;;3.37;;
3155;SDS011;1588;50.892;7.082;2023-06-19T11:26:55;4.87;;;3.10;;
3155;SDS011;1588;50.892;7.082;2023-06-19T11:32:07;4.77;;;3.60;;
3155;SDS011;1588;50.892;7.082;2023-06-19T11:37:12;6.03;;;3.57;;
3155;SDS011;1588;50.892;7.082;2023-06-19T11:42:15;5.17;;;3.53;;
3155;SDS011;1588;50.892;7.082;2023-06-19T11:47:19;4.53;;;3.67;;
3155;SDS011;1588;50.892;7.082;2023-06-19T11:52:24;6.43;;;3.77;;
3155;SDS011;1588;50.892;7.082;2023-06-19T11:57:27;9.30;;;3.50;;
3155;SDS011;1588;50.892;7.082;2023-06-19T12:02:34;6.93;;;3.27;;
3155;SDS011;1588;50.892;7.082;2023-06-19T12:07:36;5.27;;;3.37;;
3155;SDS011;1588;50.892;7.082;2023-06-19T12:12:39;15.13;;;3.07;;
3155;SDS011;1588;50.892;7.082;2023-06-19T12:17:43;7.37;;;3.97;;
3155;SDS011;1588;50.892;7.082;2023-06-19T12:22:46;5.13;;;3.40;;
3155;SDS011;1588;50.892;7.082;2023-06-19T12:27:49;5.93;;;3.37;;
3155;SDS011;1588;50.892;7.082;2023-06-19T12:32:53;6.17;;;3.57;;
3155;SDS011;1588;50.892;7.082;2023-06-19T12:37:55;5.33;;;3.20;;
3155;SDS011;1588;50.892;7.082;2023-06-19T12:42:57;5.17;;;3.63;;
3155;SDS011;1588;50.892;7.082;2023-06-19T12:48:01;5.03;;;3.53;;
3155;SDS011;1588;50.892;7.082;2023-06-19T12:53:03;8.50;;;3.20;;
3155;SDS011;1588;50.892;7.082;2023-06-19T12:58:05;3.87;;;3.00;;
3155;SDS011;1588;50.892;7.082;2023-06-19T13:03:09;9.10;;;2.90;;
3155;SDS011;1588;50.892;7.082;2023-06-19T13:08:12;3.53;;;3.20;;
3155;SDS011;1588;50.892;7.082;2023-06-19T13:13:15;8.63;;;3.30;;
3155;SDS011;1588;50.892;7.082;2023-06-19T13:18:19;4.30;;;2.97;;
3155;SDS011;1588;50.892;7.082;2023-06-19T13:23:21;3.70;;;3.13;;
3155;SDS011;1588;50.892;7.082;2023-06-19T13:28:24;5.60;;;3.27;;
3155;SDS011;1588;50.892;7.082;2023-06-19T13:33:28;3.97;;;3.30;;
3155;SDS011;1588;50.892;7.082;2023-06-19T13:38:30;5.97;;;3.23;;
3155;SDS011;1588;50.892;7.082;2023-06-19T13:43:33;4.67;;;3.00;;
3155;SDS011;1588;50.892;7.082;2023-06-19T13:48:37;5.87;;;3.07;;
3155;SDS011;1588;50.892;7.082;2023-06-19T13:53:40;5.60;;;2.90;;
3155;SDS011;1588;50.892;7.082;2023-06-19T13:58:43;3.60;;;3.30;;
3155;SDS011;1588;50.892;7.082;2023-06-19T14:03:47;4.57;;;3.40;;
3155;SDS011;1588;50.892;7.082;2023-06-19T14:08:49;4.80;;;3.00;;
3155;SDS011;1588;50.892;7.082;2023-06-19T14:13:52;4.50;;;3.10;;
3155;SDS011;1588;50.892;7.082;2023-06-19T14:18:55;4.60;;;3.07;;
3155;SDS011;1588;50.892;7.082;2023-06-19T14:23:58;4.70;;;3.33;;
3155;SDS011;1588;50.892;7.082;2023-06-19T14:29:00;3.57;;;2.53;;
3155;SDS011;1588;50.892;7.082;2023-06-19T14:34:04;5.17;;;3.00;;
3155;SDS011;1588;50.892;7.082;2023-06-19T14:39:07;2.67;;;2.33;;
3155;SDS011;1588;50.892;7.082;2023-06-19T14:44:09;4.80;;;2.80;;
3155;SDS011;1588;50.892;7.082;2023-06-19T14:49:13;4.37;;;2.87;;
3155;SDS011;1588;50.892;7.082;2023-06-19T14:54:15;2.90;;;2.50;;
3155;SDS011;1588;50.892;7.082;2023-06-19T14:59:18;4.00;;;2.60;;
3155;SDS011;1588;50.892;7.082;2023-06-19T15:04:21;7.60;;;3.07;;
3155;SDS011;1588;50.892;7.082;2023-06-19T15:09:26;3.07;;;2.77;;
3155;SDS011;1588;50.892;7.082;2023-06-19T15:14:28;6.57;;;3.00;;
3155;SDS011;1588;50.892;7.082;2023-06-19T15:19:34;3.43;;;2.60;;
3155;SDS011;1588;50.892;7.082;2023-06-19T15:24:36;20.53;;;3.37;;
3155;SDS011;1588;50.892;7.082;2023-06-19T15:29:39;4.20;;;2.60;;
3155;SDS011;1588;50.892;7.082;2023-06-19T15:34:43;3.50;;;3.20;;
3155;SDS011;1588;50.892;7.082;2023-06-19T15:39:45;7.23;;;3.00;;
3155;SDS011;1588;50.892;7.082;2023-06-19T15:44:48;6.03;;;2.80;;
3155;SDS011;1588;50.892;7.082;2023-06-19T15:49:52;3.40;;;2.77;;
3155;SDS011;1588;50.892;7.082;2023-06-19T15:54:54;4.10;;;3.00;;
3155;SDS011;1588;50.892;7.082;2023-06-19T15:59:58;5.93;;;3.43;;
3155;SDS011;1588;50.892;7.082;2023-06-19T16:05:03;4.00;;;3.10;;
3155;SDS011;1588;50.892;7.082;2023-06-19T16:10:07;3.27;;;2.97;;
3155;SDS011;1588;50.892;7.082;2023-06-19T16:15:10;4.03;;;3.03;;
3155;SDS011;1588;50.892;7.082;2023-06-19T16:20:15;4.57;;;2.57;;
3155;SDS011;1588;50.892;7.082;2023-06-19T16:25:17;2.77;;;2.57;;
3155;SDS011;1588;50.892;7.082;2023-06-19T16:30:20;4.00;;;3.10;;
3155;SDS011;1588;50.892;7.082;2023-06-19T16:35:24;3.73;;;2.50;;
3155;SDS011;1588;50.892;7.082;2023-06-19T16:40:27;5.03;;;3.00;;
3155;SDS011;1588;50.892;7.082;2023-06-19T16:45:33;4.97;;;3.20;;
3155;SDS011;1588;50.892;7.082;2023-06-19T16:50:37;7.23;;;3.43;;
3155;SDS011;1588;50.892;7.082;2023-06-19T16:55:40;17.93;;;3.77;;
3155;SDS011;1588;50.892;7.082;2023-06-19T17:00:43;33.77;;;6.30;;
3155;SDS011;1588;50.892;7.082;2023-06-19T17:05:47;8.53;;;3.40;;
3155;SDS011;1588;50.892;7.082;2023-06-19T17:11:07;5.17;;;4.00;;
3155;SDS011;1588;50.892;7.082;2023-06-19T17:16:10;3.07;;;2.77;;
3155;SDS011;1588;50.892;7.082;2023-06-19T17:21:13;7.87;;;3.17;;
3155;SDS011;1588;50.892;7.082;2023-06-19T17:26:16;4.20;;;2.90;;
3155;SDS011;1588;50.892;7.082;2023-06-19T17:31:18;3.93;;;2.57;;
3155;SDS011;1588;50.892;7.082;2023-06-19T17:36:31;5.00;;;3.07;;
3155;SDS011;1588;50.892;7.082;2023-06-19T17:41:33;4.20;;;2.93;;
3155;SDS011;1588;50.892;7.082;2023-06-19T17:46:37;5.20;;;2.87;;
3155;SDS011;1588;50.892;7.082;2023-06-19T17:51:40;7.70;;;4.13;;
3155;SDS011;1588;50.892;7.082;2023-06-19T17:56:43;7.00;;;4.57;;
3155;SDS011;1588;50.892;7.082;2023-06-19T18:01:45;4.53;;;3.43;;
3155;SDS011;1588;50.892;7.082;2023-06-19T18:06:49;5.40;;;3.73;;
3155;SDS011;1588;50.892;7.082;2023-06-19T18:11:51;5.83;;;3.67;;
3155;SDS011;1588;50.892;7.082;2023-06-19T18:16:54;5.20;;;3.60;;
3155;SDS011;1588;50.892;7.082;2023-06-19T18:22:00;8.43;;;4.20;;
3155;SDS011;1588;50.892;7.082;2023-06-19T18:27:03;5.67;;;3.80;;
3155;SDS011;1588;50.892;7.082;2023-06-19T18:32:06;4.60;;;3.87;;
3155;SDS011;1588;50.892;7.082;2023-06-19T18:37:10;5.37;;;4.07;;
3155;SDS011;1588;50.892;7.082;2023-06-19T18:42:12;5.40;;;3.50;;
3155;SDS011;1588;50.892;7.082;2023-06-19T18:47:15;9.13;;;3.57;;
3155;SDS011;1588;50.892;7.082;2023-06-19T18:52:18;7.30;;;4.00;;
3155;SDS011;1588;50.892;7.082;2023-06-19T18:57:21;7.93;;;3.83;;
3155;SDS011;1588;50.892;7.082;2023-06-19T19:02:28;5.67;;;4.00;;
3155;SDS011;1588;50.892;7.082;2023-06-19T19:07:31;4.00;;;3.60;;
3155;SDS011;1588;50.892;7.082;2023-06-19T19:12:34;6.60;;;3.67;;
3155;SDS011;1588;50.892;7.082;2023-06-19T19:17:37;5.17;;;4.10;;
3155;SDS011;1588;50.892;7.082;2023-06-19T19:22:41;6.50;;;3.93;;
3155;SDS011;1588;50.892;7.082;2023-06-19T19:27:45;8.33;;;4.10;;
3155;SDS011;1588;50.892;7.082;2023-06-19T19:32:49;6.87;;;4.03;;
3155;SDS011;1588;50.892;7.082;2023-06-19T19:37:52;5.47;;;3.90;;
3155;SDS011;1588;50.892;7.082;2023-06-19T19:42:58;7.90;;;4.37;;
3155;SDS011;1588;50.892;7.082;2023-06-19T19:48:06;6.27;;;4.20;;
3155;SDS011;1588;50.892;7.082;2023-06-19T19:53:10;6.20;;;4.00;;
3155;SDS011;1588;50.892;7.082;2023-06-19T19:58:13;5.70;;;4.00;;
3155;SDS011;1588;50.892;7.082;2023-06-19T20:03:15;6.27;;;3.90;;
3155;SDS011;1588;50.892;7.082;2023-06-19T20:08:19;8.27;;;4.33;;
3155;SDS011;1588;50.892;7.082;2023-06-19T20:13:21;8.30;;;4.40;;
3155;SDS011;1588;50.892;7.082;2023-06-19T20:18:24;5.23;;;4.27;;
3155;SDS011;1588;50.892;7.082;2023-06-19T20:23:27;5.70;;;4.30;;
3155;SDS011;1588;50.892;7.082;2023-06-19T20:28:30;5.33;;;3.87;;
3155;SDS011;1588;50.892;7.082;2023-06-19T20:33:32;7.83;;;4.70;;
3155;SDS011;1588;50.892;7.082;2023-06-19T20:38:36;9.67;;;4.40;;
3155;SDS011;1588;50.892;7.082;2023-06-19T20:43:38;12.30;;;5.23;;
3155;SDS011;1588;50.892;7.082;2023-06-19T20:48:45;7.50;;;4.60;;
3155;SDS011;1588;50.892;7.082;2023-06-19T20:53:49;8.17;;;4.63;;
3155;SDS011;1588;50.892;7.082;2023-06-19T20:58:52;9.37;;;4.87;;
3155;SDS011;1588;50.892;7.082;2023-06-19T21:03:58;8.07;;;5.60;;
3155;SDS011;1588;50.892;7.082;2023-06-19T21:09:04;5.20;;;4.27;;
3155;SDS011;1588;50.892;7.082;2023-06-19T21:14:10;8.17;;;4.10;;
3155;SDS011;1588;50.892;7.082;2023-06-19T21:19:13;7.50;;;4.70;;
3155;SDS011;1588;50.892;7.082;2023-06-19T21:24:17;7.07;;;4.43;;
3155;SDS011;1588;50.892;7.082;2023-06-19T21:29:20;16.13;;;4.50;;
3155;SDS011;1588;50.892;7.082;2023-06-19T21:34:22;6.33;;;4.03;;
3155;SDS011;1588;50.892;7.082;2023-06-19T21:39:27;8.77;;;4.80;;
3155;SDS011;1588;50.892;7.082;2023-06-19T21:44:29;8.60;;;4.80;;
3155;SDS011;1588;50.892;7.082;2023-06-19T21:49:32;8.17;;;4.50;;
3155;SDS011;1588;50.892;7.082;2023-06-19T21:54:36;5.60;;;4.00;;
3155;SDS011;1588;50.892;7.082;2023-06-19T21:59:38;7.30;;;4.47;;
3155;SDS011;1588;50.892;7.082;2023-06-19T22:04:41;9.00;;;4.47;;
3155;SDS011;1588;50.892;7.082;2023-06-19T22:09:45;6.30;;;4.33;;
3155;SDS011;1588;50.892;7.082;2023-06-19T22:14:48;5.67;;;4.20;;
3155;SDS011;1588;50.892;7.082;2023-06-19T22:19:52;6.60;;;4.17;;
3155;SDS011;1588;50.892;7.082;2023-06-19T22:24:56;9.43;;;4.00;;
3155;SDS011;1588;50.892;7.082;2023-06-19T22:29:58;6.20;;;4.10;;
3155;SDS011;1588;50.892;7.082;2023-06-19T22:35:04;6.10;;;4.30;;
3155;SDS011;1588;50.892;7.082;2023-06-19T22:40:10;7.13;;;4.53;;
3155;SDS011;1588;50.892;7.082;2023-06-19T22:45:13;6.43;;;4.70;;
3155;SDS011;1588;50.892;7.082;2023-06-19T22:50:16;4.67;;;3.50;;
3155;SDS011;1588;50.892;7.082;2023-06-19T22:55:20;5.83;;;4.10;;
3155;SDS011;1588;50.892;7.082;2023-06-19T23:00:23;7.30;;;3.90;;
3155;SDS011;1588;50.892;7.082;2023-06-19T23:05:26;7.33;;;4.13;;
3155;SDS011;1588;50.892;7.082;2023-06-19T23:10:35;4.97;;;3.93;;
3155;SDS011;1588;50.892;7.082;2023-06-19T23:15:37;5.60;;;4.13;;
3155;SDS011;1588;50.892;7.082;2023-06-19T23:20:39;8.30;;;3.93;;
3155;SDS011;1588;50.892;7.082;2023-06-19T23:25:43;7.53;;;4.00;;
3155;SDS011;1588;50.892;7.082;2023-06-19T23:30:46;10.40;;;4.10;;
3155;SDS011;1588;50.892;7.082;2023-06-19T23:35:51;6.50;;;3.70;;
3155;SDS011;1588;50.892;7.082;2023-06-19T23:40:58;11.53;;;4.00;;
3155;SDS011;1588;50.892;7.082;2023-06-19T23:46:00;9.30;;;3.90;;
3155;SDS011;1588;50.892;7.082;2023-06-19T23:51:03;8.17;;;3.73;;
3155;SDS011;1588;50.892;7.082;2023-06-19T23:56:06;5.60;;;3.70;;
